Cohocton, New York
Current Conditions -  °F | °C
As of 3:54 PM on Wednesday 17 Dec 2014 (Local Time) from KDSV Reporting Station
Overcast Overcast  
Wind Chill: 28°   Ceiling: 3000
Heat Index: 36°   Visibility: 10mi
Dew Point: 29°   Wind: 12mph
Humidity: 76%   Direction: 320°NW
Pressure: 29.93"   Gusts: 22mph
Location:  42.5°N, 77.51°W
Report Text: KDSV 172054Z AUTO 32010G19KT 10SM BKN030 OVC036 02/M02 A2993 RMK AO2 SLP149 T00221017 53012
Loading
Personal Weather Stations






























Interactive Weather Map New forecast layout! Learn more

10-Day Weather Forecast

Advertisements
Track Severe Weather on mobile